sensor_id;sensor_type;location;lat;lon;timestamp;P1;durP1;ratioP1;P2;durP2;ratioP2
15643;SDS011;7921;43.586;1.408;2022-12-07T06:06:52;20.27;;;18.40;;
15643;SDS011;7921;43.586;1.408;2022-12-07T06:09:18;19.50;;;17.60;;
15643;SDS011;7921;43.586;1.408;2022-12-07T06:11:45;20.97;;;19.00;;
15643;SDS011;7921;43.586;1.408;2022-12-07T06:14:29;19.47;;;17.77;;
15643;SDS011;7921;43.586;1.408;2022-12-07T06:16:55;20.83;;;18.90;;
15643;SDS011;7921;43.586;1.408;2022-12-07T06:19:20;21.37;;;19.20;;
15643;SDS011;7921;43.586;1.408;2022-12-07T06:21:46;21.37;;;19.27;;
15643;SDS011;7921;43.586;1.408;2022-12-07T06:24:12;20.30;;;18.53;;
15643;SDS011;7921;43.586;1.408;2022-12-07T06:26:38;21.27;;;19.27;;
15643;SDS011;7921;43.586;1.408;2022-12-07T06:29:03;20.57;;;18.60;;
15643;SDS011;7921;43.586;1.408;2022-12-07T06:31:29;20.23;;;18.33;;
15643;SDS011;7921;43.586;1.408;2022-12-07T06:33:58;20.50;;;18.50;;
15643;SDS011;7921;43.586;1.408;2022-12-07T06:36:24;18.97;;;16.93;;
15643;SDS011;7921;43.586;1.408;2022-12-07T06:38:49;19.90;;;18.03;;
15643;SDS011;7921;43.586;1.408;2022-12-07T06:41:14;20.47;;;18.57;;
15643;SDS011;7921;43.586;1.408;2022-12-07T06:43:40;20.30;;;18.40;;
15643;SDS011;7921;43.586;1.408;2022-12-07T06:46:07;19.43;;;17.53;;
15643;SDS011;7921;43.586;1.408;2022-12-07T06:48:32;20.43;;;18.43;;
15643;SDS011;7921;43.586;1.408;2022-12-07T06:50:57;19.30;;;17.60;;
15643;SDS011;7921;43.586;1.408;2022-12-07T06:53:23;18.73;;;17.13;;
15643;SDS011;7921;43.586;1.408;2022-12-07T06:55:48;20.00;;;18.20;;
15643;SDS011;7921;43.586;1.408;2022-12-07T06:58:14;20.17;;;18.27;;
15643;SDS011;7921;43.586;1.408;2022-12-07T07:00:39;21.00;;;18.83;;
15643;SDS011;7921;43.586;1.408;2022-12-07T07:03:05;19.60;;;17.67;;
15643;SDS011;7921;43.586;1.408;2022-12-07T07:05:31;19.20;;;17.50;;
15643;SDS011;7921;43.586;1.408;2022-12-07T07:07:56;20.77;;;18.77;;
15643;SDS011;7921;43.586;1.408;2022-12-07T07:10:21;18.90;;;17.17;;
15643;SDS011;7921;43.586;1.408;2022-12-07T07:12:47;18.47;;;16.80;;
15643;SDS011;7921;43.586;1.408;2022-12-07T07:15:12;19.03;;;17.23;;
15643;SDS011;7921;43.586;1.408;2022-12-07T07:17:38;19.60;;;17.80;;
15643;SDS011;7921;43.586;1.408;2022-12-07T07:20:03;20.27;;;18.37;;
15643;SDS011;7921;43.586;1.408;2022-12-07T07:22:29;21.53;;;19.53;;
15643;SDS011;7921;43.586;1.408;2022-12-07T07:24:55;21.87;;;19.77;;
15643;SDS011;7921;43.586;1.408;2022-12-07T07:27:20;21.27;;;19.37;;
15643;SDS011;7921;43.586;1.408;2022-12-07T07:29:46;21.13;;;19.23;;
15643;SDS011;7921;43.586;1.408;2022-12-07T07:32:11;20.70;;;18.70;;
15643;SDS011;7921;43.586;1.408;2022-12-07T07:34:37;21.50;;;19.40;;
15643;SDS011;7921;43.586;1.408;2022-12-07T07:37:02;21.53;;;19.53;;
15643;SDS011;7921;43.586;1.408;2022-12-07T07:39:28;22.93;;;20.83;;
15643;SDS011;7921;43.586;1.408;2022-12-07T07:41:53;21.93;;;19.83;;
15643;SDS011;7921;43.586;1.408;2022-12-07T07:44:19;23.10;;;21.03;;
15643;SDS011;7921;43.586;1.408;2022-12-07T07:46:44;22.23;;;20.00;;
15643;SDS011;7921;43.586;1.408;2022-12-07T07:49:10;22.87;;;20.47;;
15643;SDS011;7921;43.586;1.408;2022-12-07T07:51:37;22.93;;;20.60;;
15643;SDS011;7921;43.586;1.408;2022-12-07T07:54:02;21.73;;;19.43;;
15643;SDS011;7921;43.586;1.408;2022-12-07T07:56:28;21.77;;;19.80;;
15643;SDS011;7921;43.586;1.408;2022-12-07T07:58:54;21.37;;;19.37;;
15643;SDS011;7921;43.586;1.408;2022-12-07T08:01:19;21.43;;;19.30;;
15643;SDS011;7921;43.586;1.408;2022-12-07T08:03:45;21.20;;;19.20;;
15643;SDS011;7921;43.586;1.408;2022-12-07T08:06:11;21.50;;;19.60;;
15643;SDS011;7921;43.586;1.408;2022-12-07T08:08:37;21.80;;;19.87;;
15643;SDS011;7921;43.586;1.408;2022-12-07T08:11:06;21.97;;;19.87;;
15643;SDS011;7921;43.586;1.408;2022-12-07T08:13:32;23.07;;;20.97;;
15643;SDS011;7921;43.586;1.408;2022-12-07T08:15:58;22.07;;;19.80;;
15643;SDS011;7921;43.586;1.408;2022-12-07T08:18:23;21.87;;;19.77;;
15643;SDS011;7921;43.586;1.408;2022-12-07T08:20:49;23.40;;;21.20;;
15643;SDS011;7921;43.586;1.408;2022-12-07T08:23:14;24.93;;;22.50;;
15643;SDS011;7921;43.586;1.408;2022-12-07T08:25:40;22.83;;;20.63;;
15643;SDS011;7921;43.586;1.408;2022-12-07T08:28:05;23.70;;;21.40;;
15643;SDS011;7921;43.586;1.408;2022-12-07T08:30:31;22.40;;;20.37;;
15643;SDS011;7921;43.586;1.408;2022-12-07T08:32:57;23.40;;;21.30;;
15643;SDS011;7921;43.586;1.408;2022-12-07T08:35:23;23.90;;;21.50;;
15643;SDS011;7921;43.586;1.408;2022-12-07T08:37:48;23.17;;;20.77;;
15643;SDS011;7921;43.586;1.408;2022-12-07T08:40:14;21.77;;;19.67;;
15643;SDS011;7921;43.586;1.408;2022-12-07T08:42:43;20.93;;;18.93;;
15643;SDS011;7921;43.586;1.408;2022-12-07T08:45:10;22.23;;;20.13;;
15643;SDS011;7921;43.586;1.408;2022-12-07T08:47:37;20.67;;;18.77;;
15643;SDS011;7921;43.586;1.408;2022-12-07T08:50:06;21.43;;;19.33;;
15643;SDS011;7921;43.586;1.408;2022-12-07T08:52:32;19.70;;;17.67;;
15643;SDS011;7921;43.586;1.408;2022-12-07T08:54:58;17.53;;;15.80;;
15643;SDS011;7921;43.586;1.408;2022-12-07T08:57:26;13.70;;;12.37;;
15643;SDS011;7921;43.586;1.408;2022-12-07T08:59:52;12.93;;;11.67;;
15643;SDS011;7921;43.586;1.408;2022-12-07T09:02:18;12.33;;;11.20;;
15643;SDS011;7921;43.586;1.408;2022-12-07T09:04:43;12.53;;;11.43;;
15643;SDS011;7921;43.586;1.408;2022-12-07T09:07:08;10.73;;;9.73;;
15643;SDS011;7921;43.586;1.408;2022-12-07T09:09:34;10.90;;;9.00;;
15643;SDS011;7921;43.586;1.408;2022-12-07T09:11:59;9.70;;;8.67;;
15643;SDS011;7921;43.586;1.408;2022-12-07T09:14:25;8.57;;;7.77;;
15643;SDS011;7921;43.586;1.408;2022-12-07T09:16:50;8.63;;;7.80;;
15643;SDS011;7921;43.586;1.408;2022-12-07T09:19:15;7.27;;;6.67;;
15643;SDS011;7921;43.586;1.408;2022-12-07T09:21:41;7.90;;;7.20;;
15643;SDS011;7921;43.586;1.408;2022-12-07T09:24:06;7.67;;;7.07;;
15643;SDS011;7921;43.586;1.408;2022-12-07T09:26:32;8.07;;;7.37;;
15643;SDS011;7921;43.586;1.408;2022-12-07T09:28:57;7.90;;;7.23;;
15643;SDS011;7921;43.586;1.408;2022-12-07T09:31:23;8.27;;;7.57;;
15643;SDS011;7921;43.586;1.408;2022-12-07T09:33:52;7.70;;;6.97;;
15643;SDS011;7921;43.586;1.408;2022-12-07T09:36:24;8.63;;;7.83;;
15643;SDS011;7921;43.586;1.408;2022-12-07T09:38:50;9.50;;;8.57;;
15643;SDS011;7921;43.586;1.408;2022-12-07T09:41:16;8.73;;;7.93;;
15643;SDS011;7921;43.586;1.408;2022-12-07T09:43:41;9.77;;;8.97;;
15643;SDS011;7921;43.586;1.408;2022-12-07T09:46:08;9.97;;;9.07;;
15643;SDS011;7921;43.586;1.408;2022-12-07T09:48:38;11.17;;;10.03;;
15643;SDS011;7921;43.586;1.408;2022-12-07T09:51:14;9.93;;;9.13;;
15643;SDS011;7921;43.586;1.408;2022-12-07T09:53:42;12.57;;;9.37;;
15643;SDS011;7921;43.586;1.408;2022-12-07T09:56:11;10.50;;;9.60;;
15643;SDS011;7921;43.586;1.408;2022-12-07T09:58:37;11.47;;;10.40;;
15643;SDS011;7921;43.586;1.408;2022-12-07T10:03:36;11.17;;;10.17;;
15643;SDS011;7921;43.586;1.408;2022-12-07T10:06:03;9.70;;;8.80;;
15643;SDS011;7921;43.586;1.408;2022-12-07T10:08:30;9.17;;;8.37;;
15643;SDS011;7921;43.586;1.408;2022-12-07T10:10:56;9.70;;;7.97;;
15643;SDS011;7921;43.586;1.408;2022-12-07T10:13:32;7.80;;;7.10;;
15643;SDS011;7921;43.586;1.408;2022-12-07T10:16:03;10.67;;;7.50;;
15643;SDS011;7921;43.586;1.408;2022-12-07T10:18:30;7.50;;;6.90;;
15643;SDS011;7921;43.586;1.408;2022-12-07T10:21:09;8.27;;;7.57;;
15643;SDS011;7921;43.586;1.408;2022-12-07T10:23:59;8.47;;;7.70;;
15643;SDS011;7921;43.586;1.408;2022-12-07T10:26:35;8.73;;;7.93;;
15643;SDS011;7921;43.586;1.408;2022-12-07T10:29:17;9.30;;;8.50;;
15643;SDS011;7921;43.586;1.408;2022-12-07T10:31:46;9.27;;;8.27;;
15643;SDS011;7921;43.586;1.408;2022-12-07T10:36:49;10.10;;;9.10;;
15643;SDS011;7921;43.586;1.408;2022-12-07T10:39:16;9.93;;;9.07;;
15643;SDS011;7921;43.586;1.408;2022-12-07T10:44:26;10.90;;;9.90;;
15643;SDS011;7921;43.586;1.408;2022-12-07T11:06:35;9.40;;;8.17;;
15643;SDS011;7921;43.586;1.408;2022-12-07T11:12:10;9.40;;;8.40;;
15643;SDS011;7921;43.586;1.408;2022-12-07T11:27:34;7.87;;;7.17;;
15643;SDS011;7921;43.586;1.408;2022-12-07T11:30:16;9.53;;;8.53;;
15643;SDS011;7921;43.586;1.408;2022-12-07T11:38:52;9.53;;;8.63;;
15643;SDS011;7921;43.586;1.408;2022-12-07T11:41:22;9.37;;;8.37;;
15643;SDS011;7921;43.586;1.408;2022-12-07T11:43:58;9.43;;;8.63;;
15643;SDS011;7921;43.586;1.408;2022-12-07T11:46:27;9.77;;;8.77;;
15643;SDS011;7921;43.586;1.408;2022-12-07T11:52:01;9.00;;;8.20;;
15643;SDS011;7921;43.586;1.408;2022-12-07T11:54:29;7.87;;;7.23;;
15643;SDS011;7921;43.586;1.408;2022-12-07T11:56:59;7.47;;;6.87;;
15643;SDS011;7921;43.586;1.408;2022-12-07T11:59:38;7.90;;;7.20;;
15643;SDS011;7921;43.586;1.408;2022-12-07T12:02:13;7.47;;;6.77;;
15643;SDS011;7921;43.586;1.408;2022-12-07T12:07:26;9.60;;;7.07;;
15643;SDS011;7921;43.586;1.408;2022-12-07T12:09:57;8.23;;;7.43;;
15643;SDS011;7921;43.586;1.408;2022-12-07T12:12:31;7.73;;;7.13;;
15643;SDS011;7921;43.586;1.408;2022-12-07T12:20:45;7.90;;;7.17;;
15643;SDS011;7921;43.586;1.408;2022-12-07T12:26:07;8.40;;;6.80;;
15643;SDS011;7921;43.586;1.408;2022-12-07T12:28:49;7.07;;;6.47;;
15643;SDS011;7921;43.586;1.408;2022-12-07T12:33:47;6.63;;;5.63;;
15643;SDS011;7921;43.586;1.408;2022-12-07T12:39:09;6.10;;;5.60;;
15643;SDS011;7921;43.586;1.408;2022-12-07T12:47:02;5.90;;;5.40;;
15643;SDS011;7921;43.586;1.408;2022-12-07T12:49:33;5.80;;;5.30;;
15643;SDS011;7921;43.586;1.408;2022-12-07T12:52:01;6.13;;;5.07;;
15643;SDS011;7921;43.586;1.408;2022-12-07T12:57:36;5.73;;;5.03;;
15643;SDS011;7921;43.586;1.408;2022-12-07T13:00:21;7.33;;;5.23;;
15643;SDS011;7921;43.586;1.408;2022-12-07T13:02:49;5.95;;;5.40;;
15643;SDS011;7921;43.586;1.408;2022-12-07T13:05:18;5.73;;;5.03;;
15643;SDS011;7921;43.586;1.408;2022-12-07T13:10:53;6.20;;;5.13;;
15643;SDS011;7921;43.586;1.408;2022-12-07T13:15:47;6.10;;;5.60;;
15643;SDS011;7921;43.586;1.408;2022-12-07T13:25:55;5.47;;;4.90;;
15643;SDS011;7921;43.586;1.408;2022-12-07T13:29:03;5.67;;;5.17;;
15643;SDS011;7921;43.586;1.408;2022-12-07T13:31:33;5.70;;;5.20;;
15643;SDS011;7921;43.586;1.408;2022-12-07T13:34:01;5.73;;;5.20;;
15643;SDS011;7921;43.586;1.408;2022-12-07T13:36:29;5.70;;;5.07;;
15643;SDS011;7921;43.586;1.408;2022-12-07T13:39:09;5.60;;;5.10;;
15643;SDS011;7921;43.586;1.408;2022-12-07T13:41:43;5.13;;;4.73;;
15643;SDS011;7921;43.586;1.408;2022-12-07T13:44:10;5.40;;;4.90;;
15643;SDS011;7921;43.586;1.408;2022-12-07T13:49:28;5.43;;;4.93;;
15643;SDS011;7921;43.586;1.408;2022-12-07T13:51:55;5.50;;;5.03;;
15643;SDS011;7921;43.586;1.408;2022-12-07T13:54:43;5.03;;;4.53;;
15643;SDS011;7921;43.586;1.408;2022-12-07T13:57:29;5.13;;;4.73;;
15643;SDS011;7921;43.586;1.408;2022-12-07T13:59:56;5.10;;;4.43;;
15643;SDS011;7921;43.586;1.408;2022-12-07T14:02:27;4.63;;;4.23;;
15643;SDS011;7921;43.586;1.408;2022-12-07T14:08:33;4.10;;;3.80;;
15643;SDS011;7921;43.586;1.408;2022-12-07T14:10:37;4.10;;;3.80;;
15643;SDS011;7921;43.586;1.408;2022-12-07T14:15:49;4.73;;;4.20;;
15643;SDS011;7921;43.586;1.408;2022-12-07T14:18:28;5.50;;;4.17;;
15643;SDS011;7921;43.586;1.408;2022-12-07T14:21:04;4.77;;;4.37;;
15643;SDS011;7921;43.586;1.408;2022-12-07T14:23:40;4.80;;;4.13;;
15643;SDS011;7921;43.586;1.408;2022-12-07T14:26:18;5.60;;;4.20;;
15643;SDS011;7921;43.586;1.408;2022-12-07T14:28:45;4.33;;;3.93;;
15643;SDS011;7921;43.586;1.408;2022-12-07T14:31:12;6.00;;;4.03;;
15643;SDS011;7921;43.586;1.408;2022-12-07T14:33:38;4.23;;;3.93;;
15643;SDS011;7921;43.586;1.408;2022-12-07T14:36:04;4.53;;;4.13;;
15643;SDS011;7921;43.586;1.408;2022-12-07T14:38:30;4.40;;;3.90;;
15643;SDS011;7921;43.586;1.408;2022-12-07T14:40:55;4.77;;;4.37;;
15643;SDS011;7921;43.586;1.408;2022-12-07T14:43:41;4.80;;;4.40;;
15643;SDS011;7921;43.586;1.408;2022-12-07T14:46:06;6.40;;;4.20;;
15643;SDS011;7921;43.586;1.408;2022-12-07T14:48:32;4.53;;;4.13;;
15643;SDS011;7921;43.586;1.408;2022-12-07T14:50:57;4.83;;;4.43;;
15643;SDS011;7921;43.586;1.408;2022-12-07T14:53:28;5.83;;;4.30;;
15643;SDS011;7921;43.586;1.408;2022-12-07T14:55:55;4.90;;;4.50;;
15643;SDS011;7921;43.586;1.408;2022-12-07T14:58:21;4.67;;;4.27;;
15643;SDS011;7921;43.586;1.408;2022-12-07T15:00:46;5.17;;;4.77;;
15643;SDS011;7921;43.586;1.408;2022-12-07T15:03:12;5.00;;;4.60;;
15643;SDS011;7921;43.586;1.408;2022-12-07T15:05:38;5.30;;;4.80;;
15643;SDS011;7921;43.586;1.408;2022-12-07T15:08:04;4.70;;;4.30;;
15643;SDS011;7921;43.586;1.408;2022-12-07T15:10:31;5.90;;;5.40;;
15643;SDS011;7921;43.586;1.408;2022-12-07T15:12:58;5.37;;;4.87;;
15643;SDS011;7921;43.586;1.408;2022-12-07T15:15:44;5.90;;;5.40;;
15643;SDS011;7921;43.586;1.408;2022-12-07T15:18:09;4.97;;;4.57;;
15643;SDS011;7921;43.586;1.408;2022-12-07T15:20:35;5.60;;;5.10;;
15643;SDS011;7921;43.586;1.408;2022-12-07T15:23:00;6.20;;;5.30;;
15643;SDS011;7921;43.586;1.408;2022-12-07T15:25:25;5.40;;;4.90;;
15643;SDS011;7921;43.586;1.408;2022-12-07T15:27:51;5.73;;;5.20;;
15643;SDS011;7921;43.586;1.408;2022-12-07T15:30:16;5.30;;;4.90;;
15643;SDS011;7921;43.586;1.408;2022-12-07T15:32:42;5.10;;;4.60;;
15643;SDS011;7921;43.586;1.408;2022-12-07T15:35:07;5.43;;;4.93;;
15643;SDS011;7921;43.586;1.408;2022-12-07T15:37:33;5.30;;;4.80;;
15643;SDS011;7921;43.586;1.408;2022-12-07T15:39:58;5.68;;;5.13;;
15643;SDS011;7921;43.586;1.408;2022-12-07T15:42:24;5.60;;;5.10;;
15643;SDS011;7921;43.586;1.408;2022-12-07T15:44:49;5.93;;;5.33;;
15643;SDS011;7921;43.586;1.408;2022-12-07T15:47:39;6.07;;;5.47;;
15643;SDS011;7921;43.586;1.408;2022-12-07T15:50:07;6.97;;;6.37;;
15643;SDS011;7921;43.586;1.408;2022-12-07T15:52:34;6.77;;;6.20;;
15643;SDS011;7921;43.586;1.408;2022-12-07T15:54:59;8.57;;;7.87;;
15643;SDS011;7921;43.586;1.408;2022-12-07T15:57:25;8.53;;;7.73;;
15643;SDS011;7921;43.586;1.408;2022-12-07T15:59:51;8.87;;;8.07;;
15643;SDS011;7921;43.586;1.408;2022-12-07T16:02:17;9.10;;;8.27;;
15643;SDS011;7921;43.586;1.408;2022-12-07T16:04:42;10.17;;;9.17;;
15643;SDS011;7921;43.586;1.408;2022-12-07T16:07:08;9.60;;;8.60;;
15643;SDS011;7921;43.586;1.408;2022-12-07T16:09:33;8.93;;;8.23;;
15643;SDS011;7921;43.586;1.408;2022-12-07T16:11:59;7.60;;;6.97;;
15643;SDS011;7921;43.586;1.408;2022-12-07T16:14:24;7.97;;;6.97;;
15643;SDS011;7921;43.586;1.408;2022-12-07T16:16:50;7.77;;;7.07;;
15643;SDS011;7921;43.586;1.408;2022-12-07T16:19:15;7.07;;;6.47;;
15643;SDS011;7921;43.586;1.408;2022-12-07T16:21:41;6.80;;;6.07;;
15643;SDS011;7921;43.586;1.408;2022-12-07T16:24:07;6.83;;;6.23;;
15643;SDS011;7921;43.586;1.408;2022-12-07T16:26:32;7.27;;;6.27;;
15643;SDS011;7921;43.586;1.408;2022-12-07T16:28:58;7.93;;;6.90;;
15643;SDS011;7921;43.586;1.408;2022-12-07T16:31:24;8.30;;;7.60;;
15643;SDS011;7921;43.586;1.408;2022-12-07T16:33:52;8.50;;;7.70;;
15643;SDS011;7921;43.586;1.408;2022-12-07T16:36:18;10.90;;;9.80;;
15643;SDS011;7921;43.586;1.408;2022-12-07T16:38:44;11.67;;;10.60;;
15643;SDS011;7921;43.586;1.408;2022-12-07T16:41:09;10.83;;;9.83;;
15643;SDS011;7921;43.586;1.408;2022-12-07T16:43:35;10.40;;;9.50;;
15643;SDS011;7921;43.586;1.408;2022-12-07T16:46:01;9.43;;;8.63;;
15643;SDS011;7921;43.586;1.408;2022-12-07T16:48:27;9.40;;;8.53;;
15643;SDS011;7921;43.586;1.408;2022-12-07T16:50:52;9.33;;;8.43;;
15643;SDS011;7921;43.586;1.408;2022-12-07T16:53:22;9.53;;;8.63;;
15643;SDS011;7921;43.586;1.408;2022-12-07T16:55:49;9.33;;;8.43;;
15643;SDS011;7921;43.586;1.408;2022-12-07T16:58:15;8.53;;;7.73;;
15643;SDS011;7921;43.586;1.408;2022-12-07T17:00:41;8.77;;;7.87;;
15643;SDS011;7921;43.586;1.408;2022-12-07T17:03:08;8.47;;;7.67;;
15643;SDS011;7921;43.586;1.408;2022-12-07T17:05:33;7.97;;;7.27;;
15643;SDS011;7921;43.586;1.408;2022-12-07T17:08:02;8.13;;;7.43;;
15643;SDS011;7921;43.586;1.408;2022-12-07T17:10:28;8.27;;;7.47;;
15643;SDS011;7921;43.586;1.408;2022-12-07T17:12:53;9.07;;;8.23;;
15643;SDS011;7921;43.586;1.408;2022-12-07T17:15:19;8.73;;;7.93;;
15643;SDS011;7921;43.586;1.408;2022-12-07T17:17:56;8.90;;;8.03;;
15643;SDS011;7921;43.586;1.408;2022-12-07T17:20:23;9.80;;;8.43;;
15643;SDS011;7921;43.586;1.408;2022-12-07T17:22:50;8.83;;;8.00;;
15643;SDS011;7921;43.586;1.408;2022-12-07T17:25:16;8.60;;;7.80;;
15643;SDS011;7921;43.586;1.408;2022-12-07T17:27:42;7.73;;;7.10;;
15643;SDS011;7921;43.586;1.408;2022-12-07T17:30:09;7.97;;;7.23;;
15643;SDS011;7921;43.586;1.408;2022-12-07T17:32:35;8.50;;;7.70;;
15643;SDS011;7921;43.586;1.408;2022-12-07T17:35:01;8.30;;;7.47;;
15643;SDS011;7921;43.586;1.408;2022-12-07T17:37:26;11.67;;;8.87;;
15643;SDS011;7921;43.586;1.408;2022-12-07T17:39:52;7.97;;;7.23;;
15643;SDS011;7921;43.586;1.408;2022-12-07T17:42:20;8.93;;;8.03;;
15643;SDS011;7921;43.586;1.408;2022-12-07T17:45:04;7.40;;;6.80;;
15643;SDS011;7921;43.586;1.408;2022-12-07T17:47:31;8.40;;;7.70;;
15643;SDS011;7921;43.586;1.408;2022-12-07T17:49:57;8.30;;;7.60;;
15643;SDS011;7921;43.586;1.408;2022-12-07T17:52:22;9.83;;;8.83;;
15643;SDS011;7921;43.586;1.408;2022-12-07T17:55:06;11.30;;;10.40;;
15643;SDS011;7921;43.586;1.408;2022-12-07T17:57:31;12.20;;;11.20;;
15643;SDS011;7921;43.586;1.408;2022-12-07T17:59:57;11.73;;;10.67;;
15643;SDS011;7921;43.586;1.408;2022-12-07T18:02:22;11.90;;;10.77;;
15643;SDS011;7921;43.586;1.408;2022-12-07T18:04:47;12.83;;;11.70;;
15643;SDS011;7921;43.586;1.408;2022-12-07T18:07:13;13.90;;;12.50;;
15643;SDS011;7921;43.586;1.408;2022-12-07T18:09:39;16.93;;;15.23;;
15643;SDS011;7921;43.586;1.408;2022-12-07T18:12:06;17.10;;;15.50;;
15643;SDS011;7921;43.586;1.408;2022-12-07T18:14:32;16.63;;;15.20;;
15643;SDS011;7921;43.586;1.408;2022-12-07T18:16:57;15.27;;;13.77;;
15643;SDS011;7921;43.586;1.408;2022-12-07T18:19:22;14.97;;;13.63;;
15643;SDS011;7921;43.586;1.408;2022-12-07T18:21:48;14.33;;;12.83;;
15643;SDS011;7921;43.586;1.408;2022-12-07T18:24:14;12.70;;;11.50;;
15643;SDS011;7921;43.586;1.408;2022-12-07T18:26:41;11.23;;;10.13;;
15643;SDS011;7921;43.586;1.408;2022-12-07T18:29:07;11.13;;;10.03;;
15643;SDS011;7921;43.586;1.408;2022-12-07T18:31:33;10.00;;;9.10;;
15643;SDS011;7921;43.586;1.408;2022-12-07T18:34:00;10.07;;;9.20;;
15643;SDS011;7921;43.586;1.408;2022-12-07T18:36:26;10.00;;;9.10;;
15643;SDS011;7921;43.586;1.408;2022-12-07T18:38:52;10.20;;;9.30;;
15643;SDS011;7921;43.586;1.408;2022-12-07T18:41:17;10.20;;;9.23;;
15643;SDS011;7921;43.586;1.408;2022-12-07T18:43:44;11.50;;;10.30;;
15643;SDS011;7921;43.586;1.408;2022-12-07T18:46:10;13.43;;;12.13;;
15643;SDS011;7921;43.586;1.408;2022-12-07T18:48:40;12.93;;;11.83;;
15643;SDS011;7921;43.586;1.408;2022-12-07T18:51:06;15.10;;;13.57;;
15643;SDS011;7921;43.586;1.408;2022-12-07T18:53:33;15.73;;;14.13;;
15643;SDS011;7921;43.586;1.408;2022-12-07T18:56:03;15.93;;;14.40;;
15643;SDS011;7921;43.586;1.408;2022-12-07T18:58:33;16.27;;;14.77;;
15643;SDS011;7921;43.586;1.408;2022-12-07T19:00:59;15.83;;;14.10;;
15643;SDS011;7921;43.586;1.408;2022-12-07T19:03:24;14.33;;;12.97;;
15643;SDS011;7921;43.586;1.408;2022-12-07T19:05:50;15.00;;;13.40;;
15643;SDS011;7921;43.586;1.408;2022-12-07T19:08:16;14.90;;;13.50;;
15643;SDS011;7921;43.586;1.408;2022-12-07T19:10:42;14.37;;;12.97;;
15643;SDS011;7921;43.586;1.408;2022-12-07T19:13:07;14.37;;;13.07;;
15643;SDS011;7921;43.586;1.408;2022-12-07T19:15:33;15.17;;;13.63;;
15643;SDS011;7921;43.586;1.408;2022-12-07T19:17:59;14.40;;;13.10;;
15643;SDS011;7921;43.586;1.408;2022-12-07T19:20:24;16.47;;;14.93;;
15643;SDS011;7921;43.586;1.408;2022-12-07T19:22:50;17.93;;;16.23;;
15643;SDS011;7921;43.586;1.408;2022-12-07T19:25:15;19.87;;;17.97;;
15643;SDS011;7921;43.586;1.408;2022-12-07T19:27:40;22.60;;;20.40;;
15643;SDS011;7921;43.586;1.408;2022-12-07T19:30:06;21.90;;;19.77;;
15643;SDS011;7921;43.586;1.408;2022-12-07T19:32:34;26.97;;;24.40;;
15643;SDS011;7921;43.586;1.408;2022-12-07T19:35:02;27.87;;;25.47;;
15643;SDS011;7921;43.586;1.408;2022-12-07T19:37:28;28.00;;;25.33;;
15643;SDS011;7921;43.586;1.408;2022-12-07T19:39:54;28.27;;;25.47;;
15643;SDS011;7921;43.586;1.408;2022-12-07T19:42:20;27.73;;;25.13;;
15643;SDS011;7921;43.586;1.408;2022-12-07T19:44:47;28.07;;;25.57;;
15643;SDS011;7921;43.586;1.408;2022-12-07T19:47:12;29.30;;;26.50;;
15643;SDS011;7921;43.586;1.408;2022-12-07T19:49:41;28.20;;;25.60;;
15643;SDS011;7921;43.586;1.408;2022-12-07T19:52:07;30.07;;;27.23;;
15643;SDS011;7921;43.586;1.408;2022-12-07T19:54:33;31.90;;;28.80;;
15643;SDS011;7921;43.586;1.408;2022-12-07T19:56:59;32.03;;;29.03;;
15643;SDS011;7921;43.586;1.408;2022-12-07T19:59:26;32.30;;;29.30;;
15643;SDS011;7921;43.586;1.408;2022-12-07T20:01:53;30.50;;;27.60;;
15643;SDS011;7921;43.586;1.408;2022-12-07T20:04:19;29.40;;;26.60;;
15643;SDS011;7921;43.586;1.408;2022-12-07T20:06:51;31.50;;;28.63;;
15643;SDS011;7921;43.586;1.408;2022-12-07T20:09:19;31.07;;;27.97;;
15643;SDS011;7921;43.586;1.408;2022-12-07T20:11:45;31.03;;;27.93;;
15643;SDS011;7921;43.586;1.408;2022-12-07T20:14:29;28.77;;;26.10;;
15643;SDS011;7921;43.586;1.408;2022-12-07T20:16:55;28.57;;;25.77;;
15643;SDS011;7921;43.586;1.408;2022-12-07T20:19:20;29.00;;;26.23;;
15643;SDS011;7921;43.586;1.408;2022-12-07T20:21:46;27.07;;;24.37;;
15643;SDS011;7921;43.586;1.408;2022-12-07T20:24:13;26.47;;;24.03;;
15643;SDS011;7921;43.586;1.408;2022-12-07T20:26:41;26.13;;;23.60;;
15643;SDS011;7921;43.586;1.408;2022-12-07T20:29:08;26.77;;;24.17;;
15643;SDS011;7921;43.586;1.408;2022-12-07T20:31:35;26.63;;;23.83;;
15643;SDS011;7921;43.586;1.408;2022-12-07T20:34:00;27.27;;;24.67;;
15643;SDS011;7921;43.586;1.408;2022-12-07T20:36:27;26.17;;;23.50;;
15643;SDS011;7921;43.586;1.408;2022-12-07T20:38:53;26.57;;;24.07;;
15643;SDS011;7921;43.586;1.408;2022-12-07T20:41:18;26.07;;;23.57;;
15643;SDS011;7921;43.586;1.408;2022-12-07T20:44:03;27.60;;;24.90;;
15643;SDS011;7921;43.586;1.408;2022-12-07T20:46:28;29.63;;;26.87;;
15643;SDS011;7921;43.586;1.408;2022-12-07T20:48:56;41.73;;;37.83;;
15643;SDS011;7921;43.586;1.408;2022-12-07T20:51:22;39.90;;;36.20;;
15643;SDS011;7921;43.586;1.408;2022-12-07T20:53:48;35.57;;;32.37;;
15643;SDS011;7921;43.586;1.408;2022-12-07T20:56:17;36.07;;;32.30;;
15643;SDS011;7921;43.586;1.408;2022-12-07T20:58:43;35.30;;;31.90;;
15643;SDS011;7921;43.586;1.408;2022-12-07T21:01:09;38.17;;;34.57;;
15643;SDS011;7921;43.586;1.408;2022-12-07T21:03:34;38.97;;;35.27;;
15643;SDS011;7921;43.586;1.408;2022-12-07T21:06:00;36.13;;;32.50;;
15643;SDS011;7921;43.586;1.408;2022-12-07T21:08:26;34.70;;;31.37;;
15643;SDS011;7921;43.586;1.408;2022-12-07T21:10:51;29.73;;;23.03;;
15643;SDS011;7921;43.586;1.408;2022-12-07T21:13:17;32.73;;;29.53;;
15643;SDS011;7921;43.586;1.408;2022-12-07T21:15:42;32.07;;;28.70;;
15643;SDS011;7921;43.586;1.408;2022-12-07T21:18:08;24.73;;;19.23;;
15643;SDS011;7921;43.586;1.408;2022-12-07T21:20:33;32.47;;;29.03;;
15643;SDS011;7921;43.586;1.408;2022-12-07T21:22:58;26.70;;;19.63;;
15643;SDS011;7921;43.586;1.408;2022-12-07T21:25:24;30.53;;;19.10;;
15643;SDS011;7921;43.586;1.408;2022-12-07T21:27:49;26.93;;;20.80;;
15643;SDS011;7921;43.586;1.408;2022-12-07T21:30:14;28.70;;;22.90;;
15643;SDS011;7921;43.586;1.408;2022-12-07T21:32:40;31.00;;;23.23;;
15643;SDS011;7921;43.586;1.408;2022-12-07T21:35:05;28.30;;;23.53;;
15643;SDS011;7921;43.586;1.408;2022-12-07T21:37:31;28.60;;;22.87;;
15643;SDS011;7921;43.586;1.408;2022-12-07T21:39:56;24.47;;;21.17;;
15643;SDS011;7921;43.586;1.408;2022-12-07T21:42:22;26.70;;;21.17;;
15643;SDS011;7921;43.586;1.408;2022-12-07T21:44:47;24.30;;;20.40;;
15643;SDS011;7921;43.586;1.408;2022-12-07T21:47:12;24.33;;;19.93;;
15643;SDS011;7921;43.586;1.408;2022-12-07T21:49:38;24.90;;;20.87;;
15643;SDS011;7921;43.586;1.408;2022-12-07T21:52:03;26.43;;;23.83;;
15643;SDS011;7921;43.586;1.408;2022-12-07T21:54:29;24.20;;;21.70;;
15643;SDS011;7921;43.586;1.408;2022-12-07T21:56:55;23.10;;;18.73;;
15643;SDS011;7921;43.586;1.408;2022-12-07T21:59:20;22.63;;;18.70;;
15643;SDS011;7921;43.586;1.408;2022-12-07T22:01:46;22.07;;;18.27;;
15643;SDS011;7921;43.586;1.408;2022-12-07T22:04:16;21.13;;;18.83;;
15643;SDS011;7921;43.586;1.408;2022-12-07T22:06:43;30.60;;;27.63;;
15643;SDS011;7921;43.586;1.408;2022-12-07T22:09:08;31.13;;;27.93;;
15643;SDS011;7921;43.586;1.408;2022-12-07T22:11:34;29.50;;;23.87;;
15643;SDS011;7921;43.586;1.408;2022-12-07T22:14:00;31.17;;;28.23;;
15643;SDS011;7921;43.586;1.408;2022-12-07T22:16:44;29.30;;;26.40;;
15643;SDS011;7921;43.586;1.408;2022-12-07T22:19:09;28.37;;;25.60;;
15643;SDS011;7921;43.586;1.408;2022-12-07T22:21:35;26.83;;;24.33;;
15643;SDS011;7921;43.586;1.408;2022-12-07T22:24:01;21.70;;;19.37;;
15643;SDS011;7921;43.586;1.408;2022-12-07T22:26:26;23.03;;;19.40;;
15643;SDS011;7921;43.586;1.408;2022-12-07T22:28:52;21.20;;;17.40;;
15643;SDS011;7921;43.586;1.408;2022-12-07T22:31:18;25.87;;;19.87;;
15643;SDS011;7921;43.586;1.408;2022-12-07T22:33:44;21.13;;;18.67;;